createdAt,value
2022-08-27T00:01:13.490Z,762.03
2022-08-27T00:03:39.915Z,762.03
2022-08-27T00:06:06.390Z,756.27
2022-08-27T00:08:33.323Z,762.57
2022-08-27T00:10:59.822Z,759.57
2022-08-27T00:13:26.277Z,756.83
2022-08-27T00:15:52.721Z,758.40
2022-08-27T00:18:22.559Z,753.73
2022-08-27T00:20:49.270Z,759.63
2022-08-27T00:23:15.704Z,763.53
2022-08-27T00:25:42.140Z,762.07
2022-08-27T00:28:08.683Z,756.33
2022-08-27T00:30:35.188Z,754.13
2022-08-27T00:33:01.656Z,755.40
2022-08-27T00:35:28.144Z,758.67
2022-08-27T00:37:54.590Z,751.43
2022-08-27T00:40:21.129Z,757.23
2022-08-27T00:42:47.639Z,758.10
2022-08-27T00:45:14.121Z,756.00
2022-08-27T00:47:40.604Z,749.43
2022-08-27T00:50:07.034Z,748.50
2022-08-27T00:52:33.493Z,749.23
2022-08-27T00:54:59.941Z,752.13
2022-08-27T00:57:26.384Z,752.90
2022-08-27T00:59:52.825Z,752.33
2022-08-27T01:02:19.389Z,754.90
2022-08-27T01:04:45.898Z,754.73
2022-08-27T01:07:12.354Z,744.83
2022-08-27T01:09:38.847Z,754.50
2022-08-27T01:12:05.301Z,757.97
2022-08-27T01:14:31.735Z,755.83
2022-08-27T01:16:58.196Z,755.40
2022-08-27T01:19:24.629Z,754.53
2022-08-27T01:21:51.063Z,751.50
2022-08-27T01:24:17.516Z,753.73
2022-08-27T01:26:43.978Z,750.10
2022-08-27T01:29:10.484Z,749.80
2022-08-27T01:31:37.000Z,756.53
2022-08-27T01:34:03.489Z,754.00
2022-08-27T01:36:29.971Z,760.30
2022-08-27T01:38:56.400Z,752.37
2022-08-27T01:41:24.044Z,750.83
2022-08-27T01:43:50.540Z,751.60
2022-08-27T01:46:17.073Z,753.73
2022-08-27T01:48:43.526Z,749.40
2022-08-27T01:51:09.986Z,749.23
2022-08-27T01:53:36.437Z,748.37
2022-08-27T01:56:02.883Z,752.87
2022-08-27T01:58:29.348Z,748.30
2022-08-27T02:00:56.259Z,748.03
2022-08-27T02:03:23.162Z,754.30
2022-08-27T02:05:49.592Z,757.60
2022-08-27T02:08:16.076Z,751.37
2022-08-27T02:10:42.526Z,757.10
2022-08-27T02:13:09.005Z,753.23
2022-08-27T02:15:35.427Z,756.93
2022-08-27T02:18:01.892Z,746.17
2022-08-27T02:20:29.410Z,755.33
2022-08-27T02:22:55.986Z,771.63
2022-08-27T02:25:22.439Z,771.03
2022-08-27T02:27:48.885Z,765.50
2022-08-27T02:30:15.404Z,769.50
2022-08-27T02:32:41.860Z,761.73
2022-08-27T02:35:08.302Z,762.30
2022-08-27T02:37:34.739Z,764.57
2022-08-27T02:40:01.230Z,771.60
2022-08-27T02:42:27.736Z,763.67
2022-08-27T02:44:54.165Z,762.53
2022-08-27T02:47:20.630Z,771.33
2022-08-27T02:49:47.059Z,774.13
2022-08-27T02:52:13.525Z,770.73
2022-08-27T02:54:40.725Z,766.00
2022-08-27T02:57:07.185Z,776.13
2022-08-27T02:59:33.632Z,771.70
2022-08-27T03:02:00.229Z,772.50
2022-08-27T03:04:26.795Z,776.73
2022-08-27T03:06:53.235Z,766.70
2022-08-27T03:09:19.675Z,772.03
2022-08-27T03:11:46.128Z,777.33
2022-08-27T03:14:12.574Z,751.63
2022-08-27T03:16:39.028Z,727.10
2022-08-27T03:19:05.480Z,729.57
2022-08-27T03:21:31.923Z,721.37
2022-08-27T03:23:58.387Z,720.23
2022-08-27T03:26:36.087Z,711.67
2022-08-27T03:29:02.615Z,715.93
2022-08-27T03:31:29.079Z,710.93
2022-08-27T03:33:55.577Z,716.27
2022-08-27T03:36:22.008Z,719.70
2022-08-27T03:38:48.468Z,722.47
2022-08-27T03:41:14.915Z,711.07
2022-08-27T03:43:41.383Z,712.77
2022-08-27T03:46:10.713Z,719.00
2022-08-27T03:48:48.170Z,719.70
2022-08-27T03:51:18.677Z,712.03
2022-08-27T03:53:45.108Z,702.40
2022-08-27T03:56:20.593Z,695.47
2022-08-27T03:58:57.501Z,715.03
2022-08-27T04:01:29.495Z,707.87
2022-08-27T04:03:55.985Z,699.50
2022-08-27T04:06:22.439Z,714.43
2022-08-27T04:08:48.892Z,703.00
2022-08-27T04:11:16.473Z,709.10
2022-08-27T04:13:42.949Z,707.77
2022-08-27T04:16:09.430Z,707.63
2022-08-27T04:18:36.003Z,717.63
2022-08-27T04:21:02.435Z,720.40
2022-08-27T04:23:28.911Z,709.53
2022-08-27T04:25:55.361Z,704.30
2022-08-27T04:28:21.804Z,700.73
2022-08-27T04:30:48.318Z,701.07
2022-08-27T04:33:14.837Z,689.30
2022-08-27T04:35:41.377Z,701.50
2022-08-27T04:38:07.899Z,697.57
2022-08-27T04:40:34.444Z,689.93
2022-08-27T04:43:00.970Z,697.60
2022-08-27T04:45:27.457Z,690.80
2022-08-27T04:47:54.161Z,678.00
2022-08-27T04:50:20.616Z,685.70
2022-08-27T04:52:47.063Z,684.60
2022-08-27T04:55:14.286Z,697.80
2022-08-27T04:57:40.812Z,682.80
2022-08-27T05:00:07.279Z,696.30
2022-08-27T05:02:33.763Z,695.50
2022-08-27T05:05:00.261Z,695.57
2022-08-27T05:07:26.869Z,692.70
2022-08-27T05:09:53.397Z,688.17
2022-08-27T05:12:19.891Z,697.03
2022-08-27T05:14:46.367Z,696.83
2022-08-27T05:17:12.879Z,698.77
2022-08-27T05:19:39.390Z,686.90
2022-08-27T05:22:05.862Z,690.27
2022-08-27T05:24:32.326Z,699.23
2022-08-27T05:26:58.785Z,698.47
2022-08-27T05:29:25.248Z,696.47
2022-08-27T05:31:51.763Z,695.50
2022-08-27T05:34:25.403Z,682.27
2022-08-27T05:36:54.098Z,683.43
2022-08-27T05:39:20.549Z,695.70
2022-08-27T05:41:47.230Z,685.50
2022-08-27T05:44:39.771Z,692.23
2022-08-27T05:47:00.124Z,685.60
2022-08-27T05:49:26.589Z,701.27
2022-08-27T05:51:53.094Z,707.20
2022-08-27T05:54:19.950Z,690.77
2022-08-27T05:56:46.586Z,696.70
2022-08-27T05:59:13.095Z,696.43
2022-08-27T06:01:39.583Z,708.77
2022-08-27T06:04:06.086Z,719.20
2022-08-27T06:06:32.562Z,708.93
2022-08-27T06:08:59.045Z,719.07
2022-08-27T06:11:25.485Z,721.77
2022-08-27T06:13:51.952Z,713.87
2022-08-27T06:16:18.481Z,718.30
2022-08-27T06:18:44.973Z,711.17
2022-08-27T06:21:11.439Z,710.10
2022-08-27T06:23:37.913Z,702.37
2022-08-27T06:26:04.367Z,711.80
2022-08-27T06:28:30.816Z,720.50
2022-08-27T06:30:57.302Z,697.30
2022-08-27T06:33:23.871Z,689.80
2022-08-27T06:35:50.323Z,697.27
2022-08-27T06:38:16.773Z,696.37
2022-08-27T06:40:43.235Z,689.37
2022-08-27T06:43:09.702Z,685.20
2022-08-27T06:45:36.135Z,693.53
2022-08-27T06:48:02.651Z,688.70
2022-08-27T06:50:29.125Z,695.93
2022-08-27T06:52:55.604Z,682.23
2022-08-27T06:55:22.136Z,694.53
2022-08-27T06:57:48.603Z,696.90
2022-08-27T07:00:15.119Z,700.50
2022-08-27T07:02:41.641Z,707.37
2022-08-27T07:05:08.140Z,701.97
2022-08-27T07:07:41.973Z,693.30
2022-08-27T07:10:10.854Z,685.47
2022-08-27T07:12:37.321Z,696.83
2022-08-27T07:15:03.815Z,687.83
2022-08-27T07:17:31.288Z,701.23
2022-08-27T07:19:57.811Z,685.30
2022-08-27T07:22:24.296Z,695.73
2022-08-27T07:24:50.796Z,704.37
2022-08-27T07:27:17.240Z,694.03
2022-08-27T07:29:43.696Z,700.40
2022-08-27T07:32:10.180Z,706.17
2022-08-27T07:34:36.667Z,697.97
2022-08-27T07:37:03.125Z,693.23
2022-08-27T07:39:29.575Z,693.40
2022-08-27T07:41:56.020Z,694.07
2022-08-27T07:44:26.230Z,708.07
2022-08-27T07:46:54.632Z,693.30
2022-08-27T07:49:21.112Z,691.77
2022-08-27T07:51:47.551Z,695.60
2022-08-27T07:54:14.004Z,700.03
2022-08-27T07:56:40.466Z,689.13
2022-08-27T07:59:06.903Z,699.67
2022-08-27T08:01:33.580Z,700.23
2022-08-27T08:04:00.113Z,695.80
2022-08-27T08:06:26.566Z,688.07
2022-08-27T08:08:53.040Z,689.00
2022-08-27T08:11:19.508Z,702.93
2022-08-27T08:13:45.953Z,692.20
2022-08-27T08:16:12.427Z,695.43
2022-08-27T08:18:38.876Z,702.23
2022-08-27T08:21:05.366Z,691.50
2022-08-27T08:23:31.814Z,706.83
2022-08-27T08:25:58.291Z,689.93
2022-08-27T08:28:24.758Z,702.47
2022-08-27T08:30:51.274Z,689.83
2022-08-27T08:33:17.761Z,691.43
2022-08-27T08:35:44.218Z,688.87
2022-08-27T08:38:10.799Z,697.47
2022-08-27T08:40:37.391Z,684.67
2022-08-27T08:43:03.878Z,688.43
2022-08-27T08:45:30.351Z,702.07
2022-08-27T08:47:56.838Z,696.07
2022-08-27T08:50:23.329Z,699.07
2022-08-27T08:52:49.805Z,701.00
2022-08-27T08:55:16.275Z,696.30
2022-08-27T08:57:42.725Z,700.60
2022-08-27T09:00:09.217Z,701.73
2022-08-27T09:02:35.665Z,699.83
2022-08-27T09:05:02.112Z,703.70
2022-08-27T09:07:28.539Z,687.90
2022-08-27T09:09:55.005Z,699.30
2022-08-27T09:12:21.453Z,695.63
2022-08-27T09:14:51.084Z,689.03
2022-08-27T09:17:17.533Z,679.33
2022-08-27T09:19:44.012Z,687.30
2022-08-27T09:22:10.464Z,688.57
2022-08-27T09:24:36.928Z,686.83
2022-08-27T09:27:03.408Z,684.87
2022-08-27T09:29:29.845Z,690.83
2022-08-27T09:31:56.280Z,689.50
2022-08-27T09:34:22.755Z,686.40
2022-08-27T09:36:49.218Z,692.50
2022-08-27T09:39:16.722Z,700.03
2022-08-27T09:41:43.193Z,685.57
2022-08-27T09:44:09.661Z,694.40
2022-08-27T09:46:36.135Z,690.93
2022-08-27T09:49:02.645Z,682.77
2022-08-27T09:51:29.110Z,684.47
2022-08-27T09:53:55.563Z,694.30
2022-08-27T09:56:22.049Z,694.93
2022-08-27T09:58:48.509Z,687.50
2022-08-27T10:01:15.063Z,697.53
2022-08-27T10:03:41.664Z,696.70
2022-08-27T10:06:08.154Z,697.57
2022-08-27T10:08:34.820Z,689.27
2022-08-27T10:11:01.337Z,691.23
2022-08-27T10:13:27.792Z,699.10
2022-08-27T10:15:54.264Z,688.60
2022-08-27T10:18:20.723Z,694.60
2022-08-27T10:20:47.161Z,689.77
2022-08-27T10:23:13.625Z,702.83
2022-08-27T10:25:40.082Z,689.10
2022-08-27T10:28:06.526Z,701.37
2022-08-27T10:30:32.970Z,690.10
2022-08-27T10:32:59.406Z,701.47
2022-08-27T10:35:30.519Z,698.03
2022-08-27T10:37:57.040Z,693.90
2022-08-27T10:40:23.577Z,699.07
2022-08-27T10:42:50.074Z,691.90
2022-08-27T10:45:31.114Z,700.20
2022-08-27T10:47:58.047Z,705.10
2022-08-27T10:50:27.525Z,701.30
2022-08-27T10:52:53.982Z,699.10
2022-08-27T10:55:20.443Z,696.47
2022-08-27T10:57:56.738Z,701.90
2022-08-27T11:00:26.715Z,679.83
2022-08-27T11:02:53.201Z,689.03
2022-08-27T11:05:19.822Z,691.17
2022-08-27T11:07:46.297Z,698.07
2022-08-27T11:10:12.774Z,690.00
2022-08-27T11:12:39.236Z,696.13
2022-08-27T11:15:08.858Z,693.07
2022-08-27T11:17:39.155Z,690.50
2022-08-27T11:20:05.628Z,703.33
2022-08-27T11:22:32.110Z,700.43
2022-08-27T11:24:58.593Z,700.73
2022-08-27T11:27:25.027Z,691.87
2022-08-27T11:29:51.478Z,688.50
2022-08-27T11:32:26.433Z,698.10
2022-08-27T11:34:52.914Z,702.17
2022-08-27T11:37:19.347Z,690.40
2022-08-27T11:39:49.780Z,698.37
2022-08-27T11:42:18.109Z,697.60
2022-08-27T11:44:44.583Z,704.33
2022-08-27T11:47:11.124Z,698.20
2022-08-27T11:49:37.642Z,704.53
2022-08-27T11:52:04.089Z,701.67
2022-08-27T11:54:30.544Z,692.23
2022-08-27T11:56:56.997Z,696.23
2022-08-27T11:59:23.483Z,702.63
2022-08-27T12:01:49.947Z,693.67
2022-08-27T12:04:16.461Z,714.73
2022-08-27T12:06:42.970Z,698.80
2022-08-27T12:09:09.404Z,705.97
2022-08-27T12:11:35.877Z,702.80
2022-08-27T12:14:02.302Z,690.90
2022-08-27T12:16:28.806Z,689.77
2022-08-27T12:18:55.265Z,688.33
2022-08-27T12:21:21.745Z,688.77
2022-08-27T12:23:49.036Z,690.13
2022-08-27T12:26:15.497Z,688.77
2022-08-27T12:28:41.948Z,696.10
2022-08-27T12:31:08.430Z,687.70
2022-08-27T12:33:34.895Z,695.97
2022-08-27T12:36:01.396Z,687.60
2022-08-27T12:38:28.893Z,680.80
2022-08-27T12:40:55.373Z,688.00
2022-08-27T12:43:21.854Z,687.67
2022-08-27T12:45:48.305Z,675.07
2022-08-27T12:48:14.743Z,685.10
2022-08-27T12:50:41.211Z,679.23
2022-08-27T12:53:07.644Z,687.87
2022-08-27T12:55:34.115Z,690.30
2022-08-27T13:00:36.032Z,697.33
2022-08-27T13:03:02.603Z,691.80
2022-08-27T13:05:29.096Z,686.07
2022-08-27T13:07:55.538Z,698.77
2022-08-27T13:10:22.003Z,680.93
2022-08-27T13:12:48.448Z,696.80
2022-08-27T13:15:15.788Z,691.90
2022-08-27T13:17:42.611Z,690.60
2022-08-27T13:20:09.116Z,696.13
2022-08-27T13:22:35.555Z,696.17
2022-08-27T13:25:04.565Z,686.73
2022-08-27T13:27:31.071Z,690.07
2022-08-27T13:29:57.556Z,687.07
2022-08-27T13:32:24.030Z,688.93
2022-08-27T13:34:50.506Z,691.80
2022-08-27T13:37:16.968Z,686.90
2022-08-27T13:39:43.442Z,689.23
2022-08-27T13:42:09.975Z,690.03
2022-08-27T13:44:36.464Z,694.03
2022-08-27T13:47:03.397Z,691.57
2022-08-27T13:49:29.955Z,680.93
2022-08-27T13:51:56.471Z,679.67
2022-08-27T13:54:23.028Z,677.33
2022-08-27T13:59:31.387Z,692.70
2022-08-27T14:01:57.910Z,690.13
2022-08-27T14:04:24.464Z,680.17
2022-08-27T14:06:50.916Z,688.17
2022-08-27T14:09:17.375Z,700.40
2022-08-27T14:11:43.818Z,698.03
2022-08-27T14:14:10.254Z,675.43
2022-08-27T14:16:36.708Z,677.97
2022-08-27T14:19:03.153Z,700.00
2022-08-27T14:21:29.619Z,686.17
2022-08-27T14:23:56.044Z,688.93
2022-08-27T14:26:22.590Z,690.63
2022-08-27T14:28:49.010Z,692.13
2022-08-27T14:31:15.501Z,692.90
2022-08-27T14:33:41.973Z,697.03
2022-08-27T14:36:08.414Z,691.97
2022-08-27T14:38:34.843Z,689.67
2022-08-27T14:41:01.302Z,685.00
2022-08-27T14:43:27.749Z,686.83
2022-08-27T14:45:54.195Z,683.17
2022-08-27T14:48:20.649Z,692.60
2022-08-27T14:50:55.046Z,692.57
2022-08-27T14:53:21.467Z,682.17
2022-08-27T14:55:52.092Z,691.00
2022-08-27T14:58:18.751Z,692.93
2022-08-27T15:00:45.206Z,689.63
2022-08-27T15:03:11.646Z,681.87
2022-08-27T15:05:38.105Z,688.10
2022-08-27T15:08:04.646Z,687.10
2022-08-27T15:10:31.120Z,684.40
2022-08-27T15:12:57.560Z,678.87
2022-08-27T15:15:23.987Z,682.63
2022-08-27T15:17:50.465Z,681.70
2022-08-27T15:20:20.226Z,689.07
2022-08-27T15:22:47.065Z,689.50
2022-08-27T15:25:13.505Z,692.80
2022-08-27T15:27:39.939Z,684.77
2022-08-27T15:30:06.858Z,689.23
2022-08-27T15:32:33.322Z,684.10
2022-08-27T15:34:59.757Z,681.47
2022-08-27T15:37:26.248Z,687.67
2022-08-27T15:39:52.746Z,693.93
2022-08-27T15:42:19.240Z,685.90
2022-08-27T15:44:45.825Z,698.47
2022-08-27T15:47:15.351Z,687.03
2022-08-27T15:49:44.110Z,695.07
2022-08-27T15:52:10.603Z,697.67
2022-08-27T15:54:40.633Z,690.97
2022-08-27T15:57:07.090Z,695.27
2022-08-27T15:59:33.529Z,691.10
2022-08-27T16:02:01.054Z,684.33
2022-08-27T16:04:27.728Z,692.03
2022-08-27T16:06:54.182Z,693.53
2022-08-27T16:09:20.622Z,687.80
2022-08-27T16:11:47.075Z,683.33
2022-08-27T16:14:13.526Z,696.80
2022-08-27T16:16:40.006Z,689.07
2022-08-27T16:19:06.482Z,687.50
2022-08-27T16:21:32.937Z,687.93
2022-08-27T16:23:59.404Z,680.97
2022-08-27T16:26:25.856Z,691.17
2022-08-27T16:28:52.296Z,685.23
2022-08-27T16:31:18.798Z,688.40
2022-08-27T16:33:45.283Z,692.70
2022-08-27T16:36:11.743Z,682.80
2022-08-27T16:38:38.178Z,687.73
2022-08-27T16:41:04.635Z,690.80
2022-08-27T16:43:31.090Z,689.93
2022-08-27T16:45:57.563Z,690.87
2022-08-27T16:48:26.433Z,678.20
2022-08-27T16:50:52.872Z,680.53
2022-08-27T16:53:19.317Z,686.43
2022-08-27T16:55:45.764Z,691.97
2022-08-27T16:58:12.460Z,675.63
2022-08-27T17:00:39.069Z,692.40
2022-08-27T17:03:05.533Z,686.70
2022-08-27T17:05:34.136Z,695.50
2022-08-27T17:08:02.478Z,686.83
2022-08-27T17:10:29.279Z,674.97
2022-08-27T17:12:55.717Z,685.37
2022-08-27T17:15:22.180Z,682.20
2022-08-27T17:17:48.617Z,687.37
2022-08-27T17:20:15.252Z,693.43
2022-08-27T17:22:41.846Z,685.60
2022-08-27T17:25:08.291Z,692.23
2022-08-27T17:27:34.751Z,690.63
2022-08-27T17:30:01.197Z,680.47
2022-08-27T17:32:27.650Z,684.60
2022-08-27T17:34:54.093Z,689.17
2022-08-27T17:37:20.581Z,690.83
2022-08-27T17:39:47.030Z,690.70
2022-08-27T17:42:13.482Z,688.90
2022-08-27T17:44:39.916Z,680.30
2022-08-27T17:47:06.400Z,682.80
2022-08-27T17:49:32.936Z,688.23
2022-08-27T17:51:59.452Z,691.53
2022-08-27T17:54:25.875Z,681.43
2022-08-27T17:56:52.357Z,687.50
2022-08-27T17:59:18.903Z,679.50
2022-08-27T18:01:45.441Z,673.50
2022-08-27T18:04:12.238Z,684.70
2022-08-27T18:06:38.704Z,676.57
2022-08-27T18:09:05.146Z,691.60
2022-08-27T18:11:31.596Z,680.47
2022-08-27T18:14:01.519Z,690.13
2022-08-27T18:16:30.721Z,686.60
2022-08-27T18:18:57.205Z,676.80
2022-08-27T18:21:25.091Z,675.87
2022-08-27T18:23:52.335Z,678.67
2022-08-27T18:26:18.798Z,676.47
2022-08-27T18:28:45.276Z,676.87
2022-08-27T18:31:11.786Z,673.67
2022-08-27T18:33:38.304Z,681.77
2022-08-27T18:36:06.309Z,690.57
2022-08-27T18:38:32.857Z,689.83
2022-08-27T18:40:59.318Z,689.47
2022-08-27T18:43:26.099Z,692.40
2022-08-27T18:45:52.589Z,689.07
2022-08-27T18:48:19.082Z,680.47
2022-08-27T18:50:45.529Z,694.53
2022-08-27T18:53:12.018Z,681.40
2022-08-27T18:55:38.515Z,680.83
2022-08-27T18:58:05.084Z,693.27
2022-08-27T19:00:31.567Z,685.80
2022-08-27T19:02:58.036Z,682.27
2022-08-27T19:05:24.509Z,690.70
2022-08-27T19:07:51.021Z,699.10
2022-08-27T19:10:18.242Z,690.23
2022-08-27T19:12:44.768Z,687.63
2022-08-27T19:15:11.217Z,690.63
2022-08-27T19:17:37.708Z,690.77
2022-08-27T19:20:04.193Z,686.17
2022-08-27T19:22:30.716Z,679.73
2022-08-27T19:24:57.159Z,678.33
2022-08-27T19:27:25.032Z,684.00
2022-08-27T19:29:51.667Z,693.83
2022-08-27T19:32:18.123Z,693.03
2022-08-27T19:34:44.549Z,682.40
2022-08-27T19:37:10.990Z,680.00
2022-08-27T19:39:37.418Z,680.20
2022-08-27T19:42:03.868Z,678.30
2022-08-27T19:44:30.306Z,674.03
2022-08-27T19:46:56.773Z,684.00
2022-08-27T19:49:23.234Z,679.27
2022-08-27T19:51:49.683Z,676.07
2022-08-27T19:54:16.114Z,670.33
2022-08-27T19:56:42.550Z,677.07
2022-08-27T19:59:20.140Z,668.27
2022-08-27T20:01:47.959Z,679.40
2022-08-27T20:04:14.431Z,682.27
2022-08-27T20:06:40.968Z,669.50
2022-08-27T20:09:07.424Z,672.90
2022-08-27T20:11:33.987Z,675.13
2022-08-27T20:14:00.428Z,679.43
2022-08-27T20:16:26.910Z,674.47
2022-08-27T20:18:55.560Z,674.40
2022-08-27T20:21:23.763Z,681.40
2022-08-27T20:23:50.194Z,669.13
2022-08-27T20:26:16.683Z,670.97
2022-08-27T20:28:43.602Z,674.47
2022-08-27T20:31:10.282Z,681.80
2022-08-27T20:33:36.775Z,671.40
2022-08-27T20:36:03.266Z,685.50
2022-08-27T20:38:29.711Z,681.57
2022-08-27T20:40:56.184Z,668.90
2022-08-27T20:43:22.661Z,663.93
2022-08-27T20:45:49.190Z,675.17
2022-08-27T20:48:15.678Z,667.53
2022-08-27T20:50:42.160Z,663.63
2022-08-27T20:53:08.632Z,664.27
2022-08-27T20:55:35.081Z,663.33
2022-08-27T20:58:06.334Z,664.37
2022-08-27T21:00:33.299Z,659.90
2022-08-27T21:02:59.791Z,661.20
2022-08-27T21:05:26.255Z,668.07
2022-08-27T21:07:52.738Z,670.93
2022-08-27T21:10:19.223Z,661.77
2022-08-27T21:12:45.708Z,661.60
2022-08-27T21:15:12.335Z,670.67
2022-08-27T21:17:38.950Z,667.17
2022-08-27T21:20:05.418Z,664.90
2022-08-27T21:22:31.870Z,658.60
2022-08-27T21:24:58.327Z,674.97
2022-08-27T21:27:24.821Z,659.67
2022-08-27T21:29:51.429Z,659.33
2022-08-27T21:32:17.887Z,666.07
2022-08-27T21:34:44.331Z,658.00
2022-08-27T21:37:10.803Z,667.60
2022-08-27T21:39:37.240Z,663.27
2022-08-27T21:42:03.684Z,666.43
2022-08-27T21:44:30.163Z,664.43
2022-08-27T21:46:56.704Z,672.03
2022-08-27T21:49:23.190Z,665.57
2022-08-27T21:51:49.685Z,668.13
2022-08-27T21:54:16.260Z,665.40
2022-08-27T21:56:43.115Z,672.20
2022-08-27T21:59:09.555Z,673.53
2022-08-27T22:01:36.308Z,660.23
2022-08-27T22:04:02.775Z,676.80
2022-08-27T22:06:29.215Z,662.93
2022-08-27T22:08:55.649Z,663.67
2022-08-27T22:11:24.218Z,669.77
2022-08-27T22:13:50.765Z,670.13
2022-08-27T22:16:17.280Z,661.60
2022-08-27T22:18:43.851Z,655.50
2022-08-27T22:21:10.313Z,666.60
2022-08-27T22:23:36.745Z,679.50
2022-08-27T22:26:03.208Z,666.30
2022-08-27T22:28:29.648Z,664.87
2022-08-27T22:30:56.105Z,658.50
2022-08-27T22:33:22.566Z,668.77
2022-08-27T22:35:49.011Z,665.10
2022-08-27T22:38:15.495Z,657.67
2022-08-27T22:40:41.973Z,653.60
2022-08-27T22:43:08.524Z,663.00
2022-08-27T22:45:34.980Z,655.87
2022-08-27T22:48:01.416Z,656.47
2022-08-27T22:50:27.878Z,655.90
2022-08-27T22:52:54.361Z,659.73
2022-08-27T22:55:20.822Z,652.90
2022-08-27T22:57:47.269Z,653.50
2022-08-27T23:00:13.727Z,665.37
2022-08-27T23:02:40.163Z,663.60
2022-08-27T23:05:06.969Z,660.80
2022-08-27T23:07:33.565Z,661.73
2022-08-27T23:10:00.060Z,666.17
2022-08-27T23:12:26.808Z,651.80
2022-08-27T23:14:53.259Z,655.67
2022-08-27T23:17:19.713Z,657.10
2022-08-27T23:19:46.150Z,662.27
2022-08-27T23:22:12.601Z,664.00
2022-08-27T23:24:39.050Z,658.07
2022-08-27T23:27:05.504Z,653.07
2022-08-27T23:29:31.949Z,663.07
2022-08-27T23:31:58.413Z,649.27
2022-08-27T23:34:24.850Z,666.33
2022-08-27T23:36:51.303Z,653.27
2022-08-27T23:39:17.742Z,658.30
2022-08-27T23:41:44.186Z,647.03
2022-08-27T23:44:10.619Z,657.23
2022-08-27T23:46:37.150Z,656.60
2022-08-27T23:49:03.634Z,653.63
2022-08-27T23:51:30.079Z,646.80
2022-08-27T23:53:56.505Z,659.90
2022-08-27T23:56:23.071Z,661.23
2022-08-27T23:58:56.639Z,661.93
